Time;durP1;ratioP1;P1;durP2;ratioP2;P2;SDS_P1;SDS_P2;PMS_P1;PMS_P2;Temp;Humidity;BMP_temperature;BMP_pressure;BME280_temperature;BME280_humidity;BME280_pressure;Samples;Min_cycle;Max_cycle;Signal;HPM_P1;HPM_P2
2023/10/01 00:00:01;;;;;;;;;;;;;;;-147.89;100.00;60788.38;4231715;28;20418;-58
2023/10/01 00:02:03;;;;;;;;;;;;;;;-147.89;100.00;60788.38;4231568;28;19974;-59
2023/10/01 00:04:06;;;;;;;;;;;;;;;-147.89;100.00;60788.38;4213662;28;19924;-59
2023/10/01 00:06:08;;;;;;;;;;;;;;;-147.89;100.00;60788.38;4231410;28;19930;-59
2023/10/01 00:08:12;;;;;;;;;;;;;;;-147.89;100.00;60788.38;4231540;28;19931;-59
2023/10/01 00:10:13;;;;;;;;;;;;;;;-147.89;100.00;60788.38;4231534;28;20000;-59
2023/10/01 00:12:15;;;;;;;;;;;;;;;-147.89;100.00;60788.38;4231417;28;19976;-59
2023/10/01 00:14:17;;;;;;;;;;;;;;;-147.89;100.00;60788.38;4231478;28;20389;-59
2023/10/01 00:16:29;;;;;;;;;;;;;;;-147.89;100.00;60788.38;4231016;28;19928;-59
2023/10/01 00:18:30;;;;;;;;;;;;;;;-147.89;100.00;60788.38;4231562;28;19972;-59
2023/10/01 00:20:33;;;;;;;;;;;;;;;-147.89;100.00;60788.38;4231412;28;19924;-59
2023/10/01 00:22:37;;;;;;;;;;;;;;;-147.89;100.00;60788.38;4230956;28;20393;-59
2023/10/01 00:24:38;;;;;;;;;;;;;;;-147.89;100.00;60788.38;4231504;28;19947;-59
2023/10/01 00:26:40;;;;;;;;;;;;;;;-147.89;100.00;60788.38;4231166;28;20274;-59
2023/10/01 00:28:41;;;;;;;;;;;;;;;-147.89;100.00;60788.38;4231418;28;19924;-59
2023/10/01 00:30:43;;;;;;;;;;;;;;;-147.89;100.00;60788.38;4231264;28;20288;-59
2023/10/01 00:32:45;;;;;;;;;;;;;;;-147.89;100.00;60788.38;4213299;28;20007;-59
2023/10/01 00:34:47;;;;;;;;;;;;;;;-147.89;100.00;60788.38;4230546;28;19923;-59
2023/10/01 00:36:49;;;;;;;;;;;;;;;-147.89;100.00;60788.38;4231208;28;19925;-59
2023/10/01 00:38:50;;;;;;;;;;;;;;;-147.89;100.00;60788.38;4231197;28;20377;-59
2023/10/01 00:40:53;;;;;;;;;;;;;;;-147.89;100.00;60788.38;4230995;28;19924;-59
2023/10/01 00:42:54;;;;;;;;;;;;;;;-147.89;100.00;60788.38;4231341;28;20353;-59
2023/10/01 00:44:57;;;;;;;;;;;;;;;-147.89;100.00;60788.38;4231033;28;20396;-59
2023/10/01 00:46:59;;;;;;;;;;;;;;;-147.89;100.00;60788.38;4212931;28;19999;-59
2023/10/01 00:49:01;;;;;;;;;;;;;;;-147.89;100.00;60788.38;4231021;28;19923;-59
2023/10/01 00:51:04;;;;;;;;;;;;;;;-147.89;100.00;60788.38;4230736;28;19969;-59
2023/10/01 00:53:06;;;;;;;;;;;;;;;-147.89;100.00;60788.38;4231151;28;19930;-59
2023/10/01 00:55:13;;;;;;;;;;;;;;;-147.89;100.00;60788.38;4231071;28;20015;-59
2023/10/01 00:57:17;;;;;;;;;;;;;;;-147.89;100.00;60788.38;4231033;28;20026;-59
2023/10/01 00:59:19;;;;;;;;;;;;;;;-147.89;100.00;60788.38;4230991;28;19993;-59
2023/10/01 01:01:23;;;;;;;;;;;;;;;-147.89;100.00;60788.38;4230579;28;19924;-59
2023/10/01 01:03:25;;;;;;;;;;;;;;;-147.89;100.00;60788.38;4230588;28;20309;-59
2023/10/01 01:05:37;;;;;;;;;;;;;;;-147.89;100.00;60788.38;4230551;28;19923;-58
2023/10/01 01:07:40;;;;;;;;;;;;;;;-147.89;100.00;60788.38;4230705;28;19931;-59
2023/10/01 01:09:42;;;;;;;;;;;;;;;-147.89;100.00;60788.38;4230718;28;20377;-59
2023/10/01 01:11:46;;;;;;;;;;;;;;;-147.89;100.00;60788.38;4230745;28;20363;-59
2023/10/01 01:13:49;;;;;;;;;;;;;;;-147.89;100.00;60788.38;4230509;28;20312;-59
2023/10/01 01:15:57;;;;;;;;;;;;;;;-147.89;100.00;60788.38;4230507;28;19924;-59
2023/10/01 01:18:07;;;;;;;;;;;;;;;-147.89;100.00;60788.38;4212642;28;19928;-59
2023/10/01 01:20:09;;;;;;;;;;;;;;;-147.89;100.00;60788.38;4230336;28;20369;-59
2023/10/01 01:22:23;;;;;;;;;;;;;;;-147.89;100.00;60788.38;4230636;28;20298;-59
2023/10/01 01:24:30;;;;;;;;;;;;;;;-147.89;100.00;60788.38;4230790;28;20369;-59
2023/10/01 01:26:31;;;;;;;;;;;;;;;-147.89;100.00;60788.38;4230606;28;20027;-59
2023/10/01 01:28:35;;;;;;;;;;;;;;;-147.89;100.00;60788.38;4230426;28;20039;-59
2023/10/01 01:30:41;;;;;;;;;;;;;;;-147.89;100.00;60788.38;4230478;28;19923;-59
2023/10/01 01:32:43;;;;;;;;;;;;;;;-147.89;100.00;60788.38;4230628;28;19935;-59
2023/10/01 01:34:52;;;;;;;;;;;;;;;-147.89;100.00;60788.38;4230154;28;19924;-59
2023/10/01 01:36:58;;;;;;;;;;;;;;;-147.89;100.00;60788.38;4230455;28;20383;-59
2023/10/01 01:39:26;;;;;;;;;;;;;;;-147.89;100.00;60788.38;4230595;28;20469;-59
2023/10/01 01:41:28;;;;;;;;;;;;;;;-147.89;100.00;60788.38;4230424;28;19931;-59
2023/10/01 01:43:31;;;;;;;;;;;;;;;-147.89;100.00;60788.38;4230404;28;19971;-59
2023/10/01 01:45:33;;;;;;;;;;;;;;;-147.89;100.00;60788.38;4230502;28;19927;-59
2023/10/01 01:47:35;;;;;;;;;;;;;;;-147.89;100.00;60788.38;4249728;27;20393;-59
2023/10/01 01:49:40;;;;;;;;;;;;;;;-147.89;100.00;60788.38;4233506;28;20082;-58
2023/10/01 01:51:56;;;;;;;;;;;;;;;-147.89;100.00;60788.38;4233777;28;19924;-59
2023/10/01 01:53:59;;;;;;;;;;;;;;;-147.89;100.00;60788.38;4233713;28;20015;-59
2023/10/01 01:56:04;;;;;;;;;;;;;;;-147.89;100.00;60788.38;4233777;28;20223;-59
2023/10/01 01:58:10;;;;;;;;;;;;;;;-147.89;100.00;60788.38;4233713;28;20369;-59
2023/10/01 02:00:13;;;;;;;;;;;;;;;-147.89;100.00;60788.38;4233869;28;19931;-59
2023/10/01 02:02:15;;;;;;;;;;;;;;;-147.89;100.00;60788.38;4233741;28;19928;-60
2023/10/01 02:04:22;;;;;;;;;;;;;;;-147.89;100.00;60788.38;4233413;28;19935;-59
2023/10/01 02:06:27;;;;;;;;;;;;;;;-147.89;100.00;60788.38;4233228;28;19930;-60
2023/10/01 02:08:35;;;;;;;;;;;;;;;-147.89;100.00;60788.38;4233649;28;19924;-59
2023/10/01 02:10:44;;;;;;;;;;;;;;;-147.89;100.00;60788.38;4233652;28;19924;-59
2023/10/01 02:12:47;;;;;;;;;;;;;;;-147.89;100.00;60788.38;4233611;28;19928;-59
2023/10/01 02:14:54;;;;;;;;;;;;;;;-147.89;100.00;60788.38;4233186;28;19951;-59
2023/10/01 02:17:10;;;;;;;;;;;;;;;-147.89;100.00;60788.38;4233192;28;19962;-59
2023/10/01 02:19:17;;;;;;;;;;;;;;;-147.89;100.00;60788.38;4233378;28;19928;-59
2023/10/01 02:21:39;;;;;;;;;;;;;;;-147.89;100.00;60788.38;4233352;28;20389;-59
2023/10/01 02:23:41;;;;;;;;;;;;;;;-147.89;100.00;60788.38;4199944;28;19975;-59
2023/10/01 02:25:46;;;;;;;;;;;;;;;-147.89;100.00;60788.38;4199823;28;20345;-59
2023/10/01 02:28:06;;;;;;;;;;;;;;;-147.89;100.00;60788.38;4199652;28;19928;-60
2023/10/01 02:30:12;;;;;;;;;;;;;;;-147.89;100.00;60788.38;4199698;28;20294;-59
2023/10/01 02:32:14;;;;;;;;;;;;;;;-147.89;100.00;60788.38;4199420;28;19924;-59
2023/10/01 02:34:18;;;;;;;;;;;;;;;-147.89;100.00;60788.38;4199486;28;19932;-59
2023/10/01 02:36:23;;;;;;;;;;;;;;;-147.89;100.00;60788.38;4199594;28;19971;-59
2023/10/01 02:38:36;;;;;;;;;;;;;;;-147.89;100.00;60788.38;4199713;28;19994;-58
2023/10/01 02:40:39;;;;;;;;;;;;;;;-147.89;100.00;60788.38;4199599;28;19964;-58
2023/10/01 02:42:43;;;;;;;;;;;;;;;-147.89;100.00;60788.38;4199327;28;19939;-59
2023/10/01 02:44:47;;;;;;;;;;;;;;;-147.89;100.00;60788.38;4198198;28;20018;-59
2023/10/01 02:46:50;;;;;;;;;;;;;;;-147.89;100.00;60788.38;4199006;28;19924;-59
2023/10/01 02:48:55;;;;;;;;;;;;;;;-147.89;100.00;60788.38;4199326;28;19972;-58
2023/10/01 02:50:56;;;;;;;;;;;;;;;-147.89;100.00;60788.38;4199228;28;19931;-58
2023/10/01 02:53:01;;;;;;;;;;;;;;;-147.89;100.00;60788.38;4231610;28;19923;-58
2023/10/01 02:55:16;;;;;;;;;;;;;;;-147.89;100.00;60788.38;4199234;28;20279;-59
2023/10/01 02:57:24;;;;;;;;;;;;;;;-147.89;100.00;60788.38;4198890;28;19971;-59
2023/10/01 02:59:26;;;;;;;;;;;;;;;-147.89;100.00;60788.38;4199266;28;19924;-59
2023/10/01 03:01:29;;;;;;;;;;;;;;;-147.89;100.00;60788.38;4198757;28;19932;-59
2023/10/01 03:03:31;;;;;;;;;;;;;;;-147.89;100.00;60788.38;4199230;28;19924;-59
2023/10/01 03:05:36;;;;;;;;;;;;;;;-147.89;100.00;60788.38;4198991;28;19928;-57
2023/10/01 03:07:45;;;;;;;;;;;;;;;-147.89;100.00;60788.38;4198977;28;19924;-59
2023/10/01 03:09:48;;;;;;;;;;;;;;;-147.89;100.00;60788.38;4199050;28;20321;-59
2023/10/01 03:11:53;;;;;;;;;;;;;;;-147.89;100.00;60788.38;4199114;28;19929;-58
2023/10/01 03:14:03;;;;;;;;;;;;;;;-147.89;100.00;60788.38;4202038;28;19981;-58
2023/10/01 03:22:51;;;;;;;;;;;;;;;-147.89;100.00;60788.38;4201914;28;20010;-59
2023/10/01 03:24:53;;;;;;;;;;;;;;;-147.89;100.00;60788.38;4215686;28;19924;-58
2023/10/01 03:26:57;;;;;;;;;;;;;;;-147.89;100.00;60788.38;4215646;28;19930;-59
2023/10/01 03:31:18;;;;;;;;;;;;;;;-147.89;100.00;60788.38;4214890;28;20306;-58
2023/10/01 03:33:20;;;;;;;;;;;;;;;-147.89;100.00;60788.38;4215473;28;19930;-58
2023/10/01 03:35:22;;;;;;;;;;;;;;;-147.89;100.00;60788.38;4215525;28;19924;-57
2023/10/01 03:37:29;;;;;;;;;;;;;;;-147.89;100.00;60788.38;4215349;28;19997;-58
2023/10/01 03:39:35;;;;;;;;;;;;;;;-147.89;100.00;60788.38;4215198;28;19924;-58
2023/10/01 03:44:08;;;;;;;;;;;;;;;-147.89;100.00;60788.38;4215228;28;20010;-57
2023/10/01 03:46:19;;;;;;;;;;;;;;;-147.89;100.00;60788.38;4230733;28;20447;-58
2023/10/01 03:48:21;;;;;;;;;;;;;;;-147.89;100.00;60788.38;4214996;28;20027;-58
2023/10/01 03:50:26;;;;;;;;;;;;;;;-147.89;100.00;60788.38;4215059;28;19931;-59
2023/10/01 03:52:39;;;;;;;;;;;;;;;-147.89;100.00;60788.38;4215263;28;19931;-58
2023/10/01 03:55:00;;;;;;;;;;;;;;;-147.89;100.00;60788.38;4214089;28;20428;-59
2023/10/01 03:57:10;;;;;;;;;;;;;;;-147.89;100.00;60788.38;4215238;28;19924;-57
2023/10/01 03:59:16;;;;;;;;;;;;;;;-147.89;100.00;60788.38;4214550;28;19928;-58
2023/10/01 04:01:26;;;;;;;;;;;;;;;-147.89;100.00;60788.38;4214864;28;20297;-58
2023/10/01 04:03:38;;;;;;;;;;;;;;;-147.89;100.00;60788.38;4214962;28;19931;-58
2023/10/01 04:05:45;;;;;;;;;;;;;;;-147.89;100.00;60788.38;4214740;28;19986;-58
2023/10/01 04:07:53;;;;;;;;;;;;;;;-147.89;100.00;60788.38;4214434;28;19928;-58
2023/10/01 04:10:01;;;;;;;;;;;;;;;-147.89;100.00;60788.38;4214299;28;19930;-57
2023/10/01 04:12:18;;;;;;;;;;;;;;;-147.89;100.00;60788.38;4214756;28;19931;-58
2023/10/01 04:14:29;;;;;;;;;;;;;;;-147.89;100.00;60788.38;4221700;28;20316;-58
2023/10/01 04:16:40;;;;;;;;;;;;;;;-147.89;100.00;60788.38;4231439;28;19974;-59
2023/10/01 04:18:48;;;;;;;;;;;;;;;-147.89;100.00;60788.38;4231480;28;20022;-58
2023/10/01 04:23:05;;;;;;;;;;;;;;;-147.89;100.00;60788.38;4231212;28;19990;-58
2023/10/01 04:25:11;;;;;;;;;;;;;;;-147.89;100.00;60788.38;4231486;28;19931;-58
2023/10/01 04:27:23;;;;;;;;;;;;;;;-147.89;100.00;60788.38;4231494;28;19969;-58
2023/10/01 04:29:44;;;;;;;;;;;;;;;-147.89;100.00;60788.38;4231304;28;19923;-58
2023/10/01 04:31:52;;;;;;;;;;;;;;;-147.89;100.00;60788.38;4231335;28;19923;-58
2023/10/01 04:33:55;;;;;;;;;;;;;;;-147.89;100.00;60788.38;4231118;28;19928;-59
2023/10/01 04:35:58;;;;;;;;;;;;;;;-147.89;100.00;60788.38;4231032;28;20358;-59
2023/10/01 04:38:00;;;;;;;;;;;;;;;-147.89;100.00;60788.38;4231091;28;20355;-59
2023/10/01 04:42:26;;;;;;;;;;;;;;;-147.89;100.00;60788.38;4230815;28;19935;-58
2023/10/01 04:44:30;;;;;;;;;;;;;;;-147.89;100.00;60788.38;4231055;28;19923;-59
2023/10/01 04:46:37;;;;;;;;;;;;;;;-147.89;100.00;60788.38;4230973;28;20375;-58
2023/10/01 04:48:39;;;;;;;;;;;;;;;-147.89;100.00;60788.38;4230926;28;19970;-59
2023/10/01 04:50:40;;;;;;;;;;;;;;;-147.89;100.00;60788.38;4230958;28;19971;-58
2023/10/01 04:52:43;;;;;;;;;;;;;;;-147.89;100.00;60788.38;4231033;28;19962;-59
2023/10/01 04:54:49;;;;;;;;;;;;;;;-147.89;100.00;60788.38;4230953;28;19923;-58
2023/10/01 04:56:51;;;;;;;;;;;;;;;-147.89;100.00;60788.38;4230621;28;19977;-58
2023/10/01 04:58:54;;;;;;;;;;;;;;;-147.89;100.00;60788.38;4231163;28;19923;-58
2023/10/01 05:00:56;;;;;;;;;;;;;;;-147.89;100.00;60788.38;4230659;28;20067;-59
2023/10/01 05:02:58;;;;;;;;;;;;;;;-147.89;100.00;60788.38;4230957;28;19931;-58
2023/10/01 05:05:09;;;;;;;;;;;;;;;-147.89;100.00;60788.38;4230782;28;20044;-58
2023/10/01 05:07:14;;;;;;;;;;;;;;;-147.89;100.00;60788.38;4230438;28;19923;-59
2023/10/01 05:09:22;;;;;;;;;;;;;;;-147.89;100.00;60788.38;4230645;28;19932;-58
2023/10/01 05:11:29;;;;;;;;;;;;;;;-147.89;100.00;60788.38;4230309;28;19930;-59
2023/10/01 05:13:34;;;;;;;;;;;;;;;-147.89;100.00;60788.38;4230735;28;19923;-59
2023/10/01 05:15:36;;;;;;;;;;;;;;;-147.89;100.00;60788.38;4230501;28;19928;-59
2023/10/01 05:17:38;;;;;;;;;;;;;;;-147.89;100.00;60788.38;4230459;28;20027;-58
2023/10/01 05:19:41;;;;;;;;;;;;;;;-147.89;100.00;60788.38;4230187;28;19924;-59
2023/10/01 05:21:47;;;;;;;;;;;;;;;-147.89;100.00;60788.38;4230418;28;19924;-58
2023/10/01 05:23:50;;;;;;;;;;;;;;;-147.89;100.00;60788.38;4230717;28;19934;-58
2023/10/01 05:25:52;;;;;;;;;;;;;;;-147.89;100.00;60788.38;4230189;28;20023;-57
2023/10/01 05:27:55;;;;;;;;;;;;;;;-147.89;100.00;60788.38;4230483;28;19955;-58
2023/10/01 05:29:57;;;;;;;;;;;;;;;-147.89;100.00;60788.38;4230546;28;19930;-58
2023/10/01 05:31:59;;;;;;;;;;;;;;;-147.89;100.00;60788.38;4246330;28;19955;-58
2023/10/01 05:34:01;;;;;;;;;;;;;;;-147.89;100.00;60788.38;4230672;28;19977;-59
2023/10/01 05:36:06;;;;;;;;;;;;;;;-147.89;100.00;60788.38;4230461;28;19928;-59
2023/10/01 05:38:10;;;;;;;;;;;;;;;-147.89;100.00;60788.38;4230574;28;20354;-58
2023/10/01 05:40:15;;;;;;;;;;;;;;;-147.89;100.00;60788.38;4230127;28;20309;-59
2023/10/01 05:42:19;;;;;;;;;;;;;;;-147.89;100.00;60788.38;4230595;28;20374;-58
2023/10/01 05:44:21;;;;;;;;;;;;;;;-147.89;100.00;60788.38;4230322;28;19971;-59
2023/10/01 05:46:23;;;;;;;;;;;;;;;-147.89;100.00;60788.38;4230599;28;19924;-59
2023/10/01 05:48:25;;;;;;;;;;;;;;;-147.89;100.00;60788.38;4230449;28;19924;-58
2023/10/01 05:50:29;;;;;;;;;;;;;;;-147.89;100.00;60788.38;4230276;28;19935;-57
2023/10/01 05:52:31;;;;;;;;;;;;;;;-147.89;100.00;60788.38;4230470;28;19932;-58
2023/10/01 05:54:34;;;;;;;;;;;;;;;-147.89;100.00;60788.38;4230079;28;20343;-58
2023/10/01 05:56:43;;;;;;;;;;;;;;;-147.89;100.00;60788.38;4230373;28;19931;-58
2023/10/01 05:58:45;;;;;;;;;;;;;;;-147.89;100.00;60788.38;4230458;28;19923;-59
2023/10/01 06:00:56;;;;;;;;;;;;;;;-147.89;100.00;60788.38;4230135;28;20300;-59
2023/10/01 06:03:01;;;;;;;;;;;;;;;-147.89;100.00;60788.38;4230311;28;19977;-59
2023/10/01 06:05:22;;;;;;;;;;;;;;;-147.89;100.00;60788.38;4230511;28;19948;-59
2023/10/01 06:07:24;;;;;;;;;;;;;;;-147.89;100.00;60788.38;4230060;28;19928;-59
2023/10/01 06:09:33;;;;;;;;;;;;;;;-147.89;100.00;60788.38;4245263;28;19930;-59
2023/10/01 06:11:42;;;;;;;;;;;;;;;-147.89;100.00;60788.38;4230213;28;19931;-59
2023/10/01 06:13:51;;;;;;;;;;;;;;;-147.89;100.00;60788.38;4230277;28;19931;-59
2023/10/01 06:15:53;;;;;;;;;;;;;;;-147.89;100.00;60788.38;4230148;28;20038;-59
2023/10/01 06:17:55;;;;;;;;;;;;;;;-147.89;100.00;60788.38;4230116;28;19924;-59
2023/10/01 06:19:56;;;;;;;;;;;;;;;-147.89;100.00;60788.38;4230128;28;19928;-60
2023/10/01 06:22:12;;;;;;;;;;;;;;;-147.89;100.00;60788.38;4230177;28;20014;-59
2023/10/01 06:24:14;;;;;;;;;;;;;;;-147.89;100.00;60788.38;4229838;28;19928;-59
2023/10/01 06:26:19;;;;;;;;;;;;;;;-147.89;100.00;60788.38;4230092;28;19977;-59
2023/10/01 06:28:23;;;;;;;;;;;;;;;-147.89;100.00;60788.38;4229982;28;19924;-59
2023/10/01 06:30:25;;;;;;;;;;;;;;;-147.89;100.00;60788.38;4230290;28;20335;-59
2023/10/01 06:32:26;;;;;;;;;;;;;;;-147.89;100.00;60788.38;4231401;28;20424;-59
2023/10/01 06:34:32;;;;;;;;;;;;;;;-147.89;100.00;60788.38;4233085;28;20281;-59
2023/10/01 06:36:36;;;;;;;;;;;;;;;-147.89;100.00;60788.38;4232973;28;19945;-59
2023/10/01 06:38:38;;;;;;;;;;;;;;;-147.89;100.00;60788.38;4232932;28;19924;-59
2023/10/01 06:40:40;;;;;;;;;;;;;;;-147.89;100.00;60788.38;4233022;28;20346;-59
2023/10/01 06:42:42;;;;;;;;;;;;;;;-147.89;100.00;60788.38;4233051;28;19924;-59
2023/10/01 06:44:44;;;;;;;;;;;;;;;-147.89;100.00;60788.38;4233032;28;19934;-59
2023/10/01 06:46:47;;;;;;;;;;;;;;;-147.89;100.00;60788.38;4232955;28;19930;-59
2023/10/01 06:48:50;;;;;;;;;;;;;;;-147.89;100.00;60788.38;4232949;28;19935;-60
2023/10/01 06:50:53;;;;;;;;;;;;;;;-147.89;100.00;60788.38;4232940;28;19959;-59
2023/10/01 06:53:00;;;;;;;;;;;;;;;-147.89;100.00;60788.38;4232493;28;19924;-59
2023/10/01 06:55:07;;;;;;;;;;;;;;;-147.89;100.00;60788.38;4232809;28;19934;-58
2023/10/01 06:57:16;;;;;;;;;;;;;;;-147.89;100.00;60788.38;4232521;28;19954;-59
2023/10/01 06:59:18;;;;;;;;;;;;;;;-147.89;100.00;60788.38;4232648;28;19928;-59
2023/10/01 07:02:07;;;;;;;;;;;;;;;-147.89;100.00;60788.38;4232733;28;19931;-59
2023/10/01 07:03:42;;;;;;;;;;;;;;;-147.89;100.00;60788.38;4221744;28;20015;-59
2023/10/01 07:05:47;;;;;;;;;;;;;;;-147.89;100.00;60788.38;4232738;28;20389;-60
2023/10/01 07:07:48;;;;;;;;;;;;;;;-147.89;100.00;60788.38;4232334;28;19931;-59
2023/10/01 07:09:53;;;;;;;;;;;;;;;-147.89;100.00;60788.38;4232472;28;20107;-59
2023/10/01 07:11:58;;;;;;;;;;;;;;;-147.89;100.00;60788.38;4232612;28;19974;-59
2023/10/01 07:14:02;;;;;;;;;;;;;;;-147.89;100.00;60788.38;4232261;28;20001;-59
2023/10/01 07:16:03;;;;;;;;;;;;;;;-147.89;100.00;60788.38;4232504;28;20006;-59
2023/10/01 07:18:15;;;;;;;;;;;;;;;-147.89;100.00;60788.38;4232438;28;19977;-58
2023/10/01 07:20:21;;;;;;;;;;;;;;;-147.89;100.00;60788.38;4232612;28;19938;-59
2023/10/01 07:22:25;;;;;;;;;;;;;;;-147.89;100.00;60788.38;4231878;28;20102;-59
2023/10/01 07:24:29;;;;;;;;;;;;;;;-147.89;100.00;60788.38;4231706;28;20192;-59
2023/10/01 07:26:33;;;;;;;;;;;;;;;-147.89;100.00;60788.38;4232263;28;20448;-59
2023/10/01 07:28:42;;;;;;;;;;;;;;;-147.89;100.00;60788.38;4232556;28;19992;-59
2023/10/01 07:30:51;;;;;;;;;;;;;;;-147.89;100.00;60788.38;4232331;28;19924;-59
2023/10/01 07:32:54;;;;;;;;;;;;;;;-147.89;100.00;60788.38;4232095;28;20014;-59
2023/10/01 07:34:59;;;;;;;;;;;;;;;-147.89;100.00;60788.38;4247823;27;19945;-59
2023/10/01 07:37:03;;;;;;;;;;;;;;;-147.89;100.00;60788.38;4231978;28;20015;-59
2023/10/01 07:39:05;;;;;;;;;;;;;;;-147.89;100.00;60788.38;4232233;28;19992;-59
2023/10/01 07:41:13;;;;;;;;;;;;;;;-147.89;100.00;60788.38;4247700;27;20091;-59
2023/10/01 07:43:15;;;;;;;;;;;;;;;-147.89;100.00;60788.38;4232066;28;20400;-59
2023/10/01 07:45:17;;;;;;;;;;;;;;;-147.89;100.00;60788.38;4232241;28;19973;-59
2023/10/01 07:47:28;;;;;;;;;;;;;;;-147.89;100.00;60788.38;4247927;27;19923;-59
2023/10/01 07:49:48;;;;;;;;;;;;;;;-147.89;100.00;60788.38;4231910;28;20007;-58
2023/10/01 07:51:51;;;;;;;;;;;;;;;-147.89;100.00;60788.38;4229751;28;19928;-60
2023/10/01 07:53:53;;;;;;;;;;;;;;;-147.89;100.00;60788.38;4227594;28;19928;-59
2023/10/01 07:55:58;;;;;;;;;;;;;;;-147.89;100.00;60788.38;4228909;28;19924;-59
2023/10/01 08:00:26;;;;;;;;;;;;;;;-147.89;100.00;60788.38;4230798;28;19969;-59
2023/10/01 08:02:28;;;;;;;;;;;;;;;-147.89;100.00;60788.38;4213505;28;19993;-58
2023/10/01 08:06:49;;;;;;;;;;;;;;;-147.89;100.00;60788.38;4230675;28;19950;-57
2023/10/01 08:08:57;;;;;;;;;;;;;;;-147.89;100.00;60788.38;4230374;28;20018;-58
2023/10/01 08:11:01;;;;;;;;;;;;;;;-147.89;100.00;60788.38;4231465;28;19930;-58
2023/10/01 08:13:24;;;;;;;;;;;;;;;-147.89;100.00;60788.38;4231228;28;20027;-58
2023/10/01 08:15:29;;;;;;;;;;;;;;;-147.89;100.00;60788.38;4231180;28;19924;-57
2023/10/01 08:17:34;;;;;;;;;;;;;;;-147.89;100.00;60788.38;4230947;28;19924;-57
2023/10/01 08:19:44;;;;;;;;;;;;;;;-147.89;100.00;60788.38;4231101;28;19924;-57
2023/10/01 08:21:50;;;;;;;;;;;;;;;-147.89;100.00;60788.38;4230931;28;19945;-57
2023/10/01 08:23:54;;;;;;;;;;;;;;;-147.89;100.00;60788.38;4231621;28;19931;-57
2023/10/01 08:25:56;;;;;;;;;;;;;;;-147.89;100.00;60788.38;4231302;28;20327;-57
2023/10/01 08:30:18;;;;;;;;;;;;;;;-147.89;100.00;60788.38;4231153;28;19923;-58
2023/10/01 08:32:22;;;;;;;;;;;;;;;-147.89;100.00;60788.38;4231242;28;19924;-58
2023/10/01 08:34:24;;;;;;;;;;;;;;;-147.89;100.00;60788.38;4246555;27;20362;-57
2023/10/01 08:36:26;;;;;;;;;;;;;;;-147.89;100.00;60788.38;4231172;28;20274;-56
2023/10/01 08:38:36;;;;;;;;;;;;;;;-147.89;100.00;60788.38;4230886;28;19980;-56
2023/10/01 08:40:41;;;;;;;;;;;;;;;-147.89;100.00;60788.38;4230889;28;19928;-57
2023/10/01 08:42:47;;;;;;;;;;;;;;;-147.89;100.00;60788.38;4231074;28;19923;-58
2023/10/01 08:44:50;;;;;;;;;;;;;;;-147.89;100.00;60788.38;4231081;28;19966;-56
2023/10/01 08:46:52;;;;;;;;;;;;;;;-147.89;100.00;60788.38;4231166;28;19923;-56
2023/10/01 08:49:18;;;;;;;;;;;;;;;-147.89;100.00;60788.38;4230690;28;19952;-56
2023/10/01 08:51:17;;;;;;;;;;;;;;;-147.89;100.00;60788.38;4231064;28;19928;-58
2023/10/01 08:53:19;;;;;;;;;;;;;;;-147.89;100.00;60788.38;4230838;28;20304;-58
2023/10/01 08:55:35;;;;;;;;;;;;;;;-147.89;100.00;60788.38;4230477;28;19924;-58
2023/10/01 08:57:45;;;;;;;;;;;;;;;-147.89;100.00;60788.38;4230743;28;20381;-58
2023/10/01 08:59:46;;;;;;;;;;;;;;;-147.89;100.00;60788.38;4230823;28;19924;-58
2023/10/01 09:01:50;;;;;;;;;;;;;;;-147.89;100.00;60788.38;4230828;28;19928;-57
2023/10/01 09:03:55;;;;;;;;;;;;;;;-147.89;100.00;60788.38;4230433;28;19969;-57
2023/10/01 09:06:04;;;;;;;;;;;;;;;-147.89;100.00;60788.38;4230894;28;19924;-58
2023/10/01 09:08:16;;;;;;;;;;;;;;;-147.89;100.00;60788.38;4230634;28;19946;-58
2023/10/01 09:10:20;;;;;;;;;;;;;;;-147.89;100.00;60788.38;4246693;27;19955;-58
2023/10/01 09:12:22;;;;;;;;;;;;;;;-147.89;100.00;60788.38;4230865;28;19977;-57
2023/10/01 09:14:39;;;;;;;;;;;;;;;-147.89;100.00;60788.38;4230463;28;19924;-58
2023/10/01 09:16:46;;;;;;;;;;;;;;;-147.89;100.00;60788.38;4230599;28;20353;-58
2023/10/01 09:19:03;;;;;;;;;;;;;;;-147.89;100.00;60788.38;4230264;28;19932;-58
2023/10/01 09:21:08;;;;;;;;;;;;;;;-147.89;100.00;60788.38;4230829;28;19931;-57
2023/10/01 09:23:10;;;;;;;;;;;;;;;-147.89;100.00;60788.38;4230296;28;20452;-57
2023/10/01 09:25:19;;;;;;;;;;;;;;;-147.89;100.00;60788.38;4230600;28;20382;-58
2023/10/01 09:27:30;;;;;;;;;;;;;;;-147.89;100.00;60788.38;4230457;28;20297;-58
2023/10/01 09:29:32;;;;;;;;;;;;;;;-147.89;100.00;60788.38;4230643;28;20365;-57
2023/10/01 09:31:54;;;;;;;;;;;;;;;-147.89;100.00;60788.38;4230650;28;19954;-58
2023/10/01 09:33:56;;;;;;;;;;;;;;;-147.89;100.00;60788.38;4230031;28;19924;-57
2023/10/01 09:36:00;;;;;;;;;;;;;;;-147.89;100.00;60788.38;4230339;28;19923;-58
2023/10/01 09:38:09;;;;;;;;;;;;;;;-147.89;100.00;60788.38;4230620;28;19969;-57
2023/10/01 09:42:44;;;;;;;;;;;;;;;-147.89;100.00;60788.38;4230633;28;19924;-58
2023/10/01 09:44:47;;;;;;;;;;;;;;;-147.89;100.00;60788.38;4230232;28;19924;-58
2023/10/01 09:46:49;;;;;;;;;;;;;;;-147.89;100.00;60788.38;4212085;28;20438;-58
2023/10/01 09:49:00;;;;;;;;;;;;;;;-147.89;100.00;60788.38;4230430;28;20498;-58
2023/10/01 09:51:14;;;;;;;;;;;;;;;-147.89;100.00;60788.38;4230296;28;20015;-58
2023/10/01 09:53:23;;;;;;;;;;;;;;;-147.89;100.00;60788.38;4230430;28;19992;-58
2023/10/01 09:55:29;;;;;;;;;;;;;;;-147.89;100.00;60788.38;4230303;28;20293;-58
2023/10/01 09:57:37;;;;;;;;;;;;;;;-147.89;100.00;60788.38;4230367;28;19989;-58
2023/10/01 09:59:39;;;;;;;;;;;;;;;-147.89;100.00;60788.38;4230102;28;19931;-57
2023/10/01 10:01:47;;;;;;;;;;;;;;;-147.89;100.00;60788.38;4229892;28;20297;-58
2023/10/01 10:03:54;;;;;;;;;;;;;;;-147.89;100.00;60788.38;4230330;28;19932;-58
2023/10/01 10:05:56;;;;;;;;;;;;;;;-147.89;100.00;60788.38;4230216;28;19975;-58
2023/10/01 10:08:13;;;;;;;;;;;;;;;-147.89;100.00;60788.38;4232864;28;20307;-58
2023/10/01 10:10:24;;;;;;;;;;;;;;;-147.89;100.00;60788.38;4233392;28;19936;-58
2023/10/01 10:12:33;;;;;;;;;;;;;;;-147.89;100.00;60788.38;4233533;28;19924;-57
2023/10/01 10:14:35;;;;;;;;;;;;;;;-147.89;100.00;60788.38;4233546;28;19984;-58
2023/10/01 10:16:56;;;;;;;;;;;;;;;-147.89;100.00;60788.38;4233267;28;20066;-57
2023/10/01 10:19:20;;;;;;;;;;;;;;;-147.89;100.00;60788.38;4233465;28;19967;-58
2023/10/01 10:21:36;;;;;;;;;;;;;;;-147.89;100.00;60788.38;4233221;28;19928;-57
2023/10/01 10:23:53;;;;;;;;;;;;;;;-147.89;100.00;60788.38;4233392;28;19977;-58
2023/10/01 10:26:12;;;;;;;;;;;;;;;-147.89;100.00;60788.38;4233372;28;19931;-58
2023/10/01 10:28:29;;;;;;;;;;;;;;;-147.89;100.00;60788.38;4233328;28;19931;-58
2023/10/01 10:30:31;;;;;;;;;;;;;;;-147.89;100.00;60788.38;4232885;28;19928;-57
2023/10/01 10:32:45;;;;;;;;;;;;;;;-147.89;100.00;60788.38;4233073;28;19988;-58
2023/10/01 10:35:14;;;;;;;;;;;;;;;-147.89;100.00;60788.38;4233399;28;19923;-58
2023/10/01 10:37:56;;;;;;;;;;;;;;;-147.89;100.00;60788.38;4233284;28;19930;-58
2023/10/01 10:40:04;;;;;;;;;;;;;;;-147.89;100.00;60788.38;4233143;28;19927;-57
2023/10/01 10:42:30;;;;;;;;;;;;;;;-147.89;100.00;60788.38;4233175;28;19942;-58
2023/10/01 10:44:34;;;;;;;;;;;;;;;-147.89;100.00;60788.38;4232686;28;19924;-59
2023/10/01 10:46:59;;;;;;;;;;;;;;;-147.89;100.00;60788.38;4232829;28;19949;-58
2023/10/01 10:49:02;;;;;;;;;;;;;;;-147.89;100.00;60788.38;4233027;28;20345;-58
2023/10/01 10:51:04;;;;;;;;;;;;;;;-147.89;100.00;60788.38;4231939;28;20323;-58
2023/10/01 10:53:24;;;;;;;;;;;;;;;-147.89;100.00;60788.38;4233058;28;19969;-58
2023/10/01 10:55:36;;;;;;;;;;;;;;;-147.89;100.00;60788.38;4232948;28;19930;-58
2023/10/01 10:57:48;;;;;;;;;;;;;;;-147.89;100.00;60788.38;4233284;28;19923;-58